createdAt,value
2022-11-14T00:05:10.789Z,8.50
2022-11-14T00:10:27.362Z,8.40
2022-11-14T00:15:44.781Z,8.40
2022-11-14T00:21:03.084Z,8.40
2022-11-14T00:26:19.939Z,8.40
2022-11-14T00:31:36.568Z,8.40
2022-11-14T00:36:54.406Z,8.30
2022-11-14T00:42:11.288Z,8.30
2022-11-14T00:47:27.764Z,8.30
2022-11-14T00:52:45.714Z,8.30
2022-11-14T00:58:02.608Z,8.30
2022-11-14T01:03:19.405Z,8.20
2022-11-14T01:08:37.312Z,8.20
2022-11-14T01:13:54.016Z,8.20
2022-11-14T01:19:10.654Z,8.20
2022-11-14T01:24:28.958Z,8.10
2022-11-14T01:29:45.552Z,8.10
2022-11-14T01:35:02.074Z,8.10
2022-11-14T01:40:20.567Z,8.10
2022-11-14T01:45:53.556Z,8.20
2022-11-14T01:51:19.642Z,8.10
2022-11-14T01:56:41.424Z,8.10
2022-11-14T02:02:01.347Z,8.10
2022-11-14T02:07:19.714Z,8.00
2022-11-14T02:12:38.968Z,8.00
2022-11-14T02:17:55.615Z,8.00
2022-11-14T02:23:14.039Z,8.00
2022-11-14T02:28:31.033Z,8.00
2022-11-14T02:33:47.851Z,7.90
2022-11-14T02:39:05.751Z,7.90
2022-11-14T02:44:22.466Z,7.90
2022-11-14T02:49:38.947Z,7.80
2022-11-14T02:54:56.963Z,7.90
2022-11-14T03:00:15.323Z,7.90
2022-11-14T03:05:32.206Z,7.90
2022-11-14T03:10:50.123Z,7.90
2022-11-14T03:16:08.470Z,7.90
2022-11-14T03:21:25.498Z,8.00
2022-11-14T03:26:43.759Z,8.00
2022-11-14T03:32:00.507Z,7.90
2022-11-14T03:37:17.031Z,7.90
2022-11-14T03:42:36.798Z,7.90
2022-11-14T03:47:55.868Z,8.00
2022-11-14T03:53:12.840Z,8.20
2022-11-14T03:58:31.310Z,7.90
2022-11-14T04:03:48.161Z,7.90
2022-11-14T04:09:04.731Z,8.00
2022-11-14T04:14:22.695Z,8.00
2022-11-14T04:19:39.261Z,7.90
2022-11-14T04:24:58.177Z,7.90
2022-11-14T04:30:16.125Z,7.90
2022-11-14T04:35:32.923Z,7.80
2022-11-14T04:40:50.725Z,7.90
2022-11-14T04:46:08.941Z,7.90
2022-11-14T04:51:25.307Z,7.80
2022-11-14T04:56:41.735Z,7.60
2022-11-14T05:01:59.690Z,7.50
2022-11-14T05:07:16.964Z,7.60
2022-11-14T05:12:33.663Z,7.60
2022-11-14T05:17:51.788Z,7.60
2022-11-14T05:23:08.540Z,7.50
2022-11-14T05:28:24.887Z,7.50
2022-11-14T05:33:42.638Z,7.60
2022-11-14T05:38:59.438Z,7.60
2022-11-14T05:44:15.800Z,7.60
2022-11-14T05:49:33.552Z,7.70
2022-11-14T05:54:50.244Z,7.50
2022-11-14T06:00:07.753Z,7.50
2022-11-14T06:05:25.794Z,7.60
2022-11-14T06:10:42.606Z,7.60
2022-11-14T06:16:01.768Z,7.50
2022-11-14T06:21:20.994Z,7.60
2022-11-14T06:26:37.851Z,7.70
2022-11-14T06:31:55.433Z,7.80
2022-11-14T06:37:13.530Z,7.90
2022-11-14T06:42:30.393Z,7.90
2022-11-14T06:47:46.909Z,8.00
2022-11-14T06:53:04.695Z,7.80
2022-11-14T06:58:21.488Z,7.60
2022-11-14T07:03:38.234Z,7.60
2022-11-14T07:08:57.417Z,7.50
2022-11-14T07:14:14.376Z,7.70
2022-11-14T07:19:30.768Z,7.80
2022-11-14T07:24:48.494Z,7.70
2022-11-14T07:30:06.477Z,7.80
2022-11-14T07:35:23.021Z,7.80
2022-11-14T07:40:40.954Z,7.90
2022-11-14T07:46:00.377Z,8.10
2022-11-14T07:51:18.739Z,8.50
2022-11-14T07:56:36.580Z,8.50
2022-11-14T08:01:53.307Z,8.70
2022-11-14T08:07:10.183Z,8.80
2022-11-14T08:12:27.890Z,8.90
2022-11-14T08:17:44.586Z,9.10
2022-11-14T08:23:08.031Z,9.20
2022-11-14T08:28:26.086Z,9.20
2022-11-14T08:33:42.929Z,9.60
2022-11-14T08:39:02.130Z,9.30
2022-11-14T08:44:20.118Z,9.20
2022-11-14T08:49:36.982Z,9.40
2022-11-14T08:54:53.505Z,10.00
2022-11-14T09:00:12.701Z,10.90
2022-11-14T09:05:29.237Z,11.40
2022-11-14T09:10:45.991Z,11.90
2022-11-14T09:16:04.057Z,11.60
2022-11-14T09:21:20.878Z,11.80
2022-11-14T09:26:37.500Z,12.50
2022-11-14T09:31:56.785Z,13.30
2022-11-14T09:37:13.503Z,13.90
2022-11-14T09:42:49.550Z,14.70
2022-11-14T09:48:14.321Z,15.80
2022-11-14T09:53:35.131Z,16.80
2022-11-14T09:58:52.039Z,18.80
2022-11-14T10:04:23.667Z,20.70
2022-11-14T10:09:57.965Z,22.30
2022-11-14T10:15:23.596Z,23.30
2022-11-14T10:20:48.170Z,23.20
2022-11-14T10:26:15.070Z,24.60
2022-11-14T10:31:43.278Z,25.00
2022-11-14T10:37:07.534Z,23.60
2022-11-14T10:42:30.432Z,22.20
2022-11-14T10:47:52.675Z,21.60
2022-11-14T10:53:22.466Z,21.90
2022-11-14T10:58:48.502Z,22.30
2022-11-14T11:04:15.078Z,22.00
2022-11-14T11:09:50.843Z,22.30
2022-11-14T11:15:18.665Z,21.50
2022-11-14T11:20:37.947Z,22.00
2022-11-14T11:26:01.555Z,22.40
2022-11-14T11:31:18.135Z,22.70
2022-11-14T11:36:41.261Z,21.40
2022-11-14T11:42:10.529Z,20.10
2022-11-14T11:47:30.674Z,19.10
2022-11-14T11:52:52.811Z,17.80
2022-11-14T11:58:20.781Z,17.10
2022-11-14T12:03:37.503Z,16.90
2022-11-14T12:09:07.482Z,16.30
2022-11-14T12:14:44.713Z,16.70
2022-11-14T12:20:22.100Z,16.60
2022-11-14T12:25:55.151Z,16.50
2022-11-14T12:31:16.938Z,16.60
2022-11-14T12:36:35.895Z,17.10
2022-11-14T12:42:02.582Z,17.20
2022-11-14T12:47:22.937Z,16.80
2022-11-14T12:52:50.781Z,16.70
2022-11-14T12:58:09.853Z,17.30
2022-11-14T13:03:47.211Z,16.90
2022-11-14T13:09:40.703Z,15.80
2022-11-14T13:15:16.432Z,14.90
2022-11-14T13:20:54.129Z,14.10
2022-11-14T13:26:42.874Z,13.40
2022-11-14T13:31:59.631Z,13.20
2022-11-14T13:37:35.906Z,13.10
2022-11-14T13:43:02.475Z,13.10
2022-11-14T13:49:07.891Z,13.20
2022-11-14T13:54:25.639Z,13.00
2022-11-14T13:59:57.341Z,13.00
2022-11-14T14:05:23.647Z,13.20
2022-11-14T14:10:47.810Z,13.20
2022-11-14T14:16:10.417Z,13.00
2022-11-14T14:21:38.345Z,12.70
2022-11-14T14:27:05.635Z,12.70
2022-11-14T14:32:22.595Z,12.70
2022-11-14T14:37:39.041Z,12.60
2022-11-14T14:42:58.054Z,12.60
2022-11-14T14:48:23.888Z,12.50
2022-11-14T14:53:41.082Z,12.40
2022-11-14T14:58:58.963Z,12.40
2022-11-14T15:04:17.346Z,12.30
2022-11-14T15:09:34.174Z,12.20
2022-11-14T15:14:53.209Z,12.10
2022-11-14T15:20:23.518Z,12.10
2022-11-14T15:25:40.126Z,12.00
2022-11-14T15:31:00.620Z,11.90
2022-11-14T15:36:18.257Z,11.90
2022-11-14T15:41:35.340Z,11.80
2022-11-14T15:46:53.558Z,11.70
2022-11-14T15:52:21.724Z,11.60
2022-11-14T15:57:38.874Z,11.60
2022-11-14T16:02:58.457Z,11.50
2022-11-14T16:08:15.245Z,11.40
2022-11-14T16:13:32.089Z,11.30
2022-11-14T16:18:50.083Z,11.20
2022-11-14T16:24:07.452Z,11.10
2022-11-14T16:29:24.342Z,11.10
2022-11-14T16:34:42.487Z,11.00
2022-11-14T16:39:58.954Z,10.90
2022-11-14T16:45:15.992Z,10.90
2022-11-14T16:50:34.066Z,10.80
2022-11-14T16:55:50.839Z,10.80
2022-11-14T17:01:12.898Z,10.70
2022-11-14T17:06:32.730Z,10.60
2022-11-14T17:11:49.174Z,10.60
2022-11-14T17:17:05.674Z,10.50
2022-11-14T17:22:23.516Z,10.40
2022-11-14T17:27:40.133Z,10.40
2022-11-14T17:32:56.809Z,10.20
2022-11-14T17:38:14.658Z,10.20
2022-11-14T17:43:37.304Z,10.00
2022-11-14T17:48:55.375Z,9.90
2022-11-14T17:54:13.210Z,10.00
2022-11-14T17:59:29.975Z,9.80
2022-11-14T18:04:47.948Z,9.70
2022-11-14T18:10:06.654Z,9.70
2022-11-14T18:15:27.768Z,9.60
2022-11-14T18:20:45.071Z,9.50
2022-11-14T18:26:08.991Z,9.50
2022-11-14T18:31:26.156Z,9.50
2022-11-14T18:36:42.821Z,9.50
2022-11-14T18:42:01.385Z,9.50
2022-11-14T18:47:18.075Z,9.50
2022-11-14T18:52:34.528Z,9.40
2022-11-14T18:57:53.299Z,9.30
2022-11-14T19:03:10.942Z,9.20
2022-11-14T19:08:27.308Z,9.20
2022-11-14T19:13:45.114Z,9.20
2022-11-14T19:19:02.445Z,9.20
2022-11-14T19:24:19.295Z,9.20
2022-11-14T19:29:37.244Z,9.20
2022-11-14T19:34:53.748Z,9.20
2022-11-14T19:40:11.394Z,9.10
2022-11-14T19:45:29.212Z,9.10
2022-11-14T19:50:46.024Z,9.10
2022-11-14T19:56:03.192Z,9.10
2022-11-14T20:01:22.878Z,9.00
2022-11-14T20:06:39.645Z,9.00
2022-11-14T20:11:56.438Z,8.80
2022-11-14T20:17:14.557Z,8.80
2022-11-14T20:22:31.223Z,8.80
2022-11-14T20:27:49.008Z,8.70
2022-11-14T20:33:07.166Z,8.70
2022-11-14T20:38:24.131Z,8.70
2022-11-14T20:43:42.040Z,8.70
2022-11-14T20:49:00.060Z,8.70
2022-11-14T20:54:16.875Z,8.60
2022-11-14T20:59:34.136Z,8.50
2022-11-14T21:04:52.378Z,8.50
2022-11-14T21:10:27.261Z,8.50
2022-11-14T21:15:44.039Z,8.50
2022-11-14T21:21:04.968Z,8.50
2022-11-14T21:26:23.201Z,8.60
2022-11-14T21:31:41.676Z,8.60
2022-11-14T21:36:59.973Z,8.60
2022-11-14T21:42:18.609Z,8.60
2022-11-14T21:47:35.454Z,8.50
2022-11-14T21:52:53.315Z,8.40
2022-11-14T21:58:10.206Z,8.40
2022-11-14T22:03:44.285Z,8.40
2022-11-14T22:09:02.497Z,8.50
2022-11-14T22:14:19.249Z,8.50
2022-11-14T22:19:35.674Z,8.50
2022-11-14T22:24:53.561Z,8.40
2022-11-14T22:30:11.854Z,8.40
2022-11-14T22:35:28.571Z,8.40
2022-11-14T22:40:46.454Z,8.40
2022-11-14T22:46:03.502Z,8.30
2022-11-14T22:51:21.515Z,8.30
2022-11-14T22:56:39.698Z,8.30
2022-11-14T23:01:56.650Z,8.30
2022-11-14T23:07:13.352Z,8.20
2022-11-14T23:12:31.541Z,8.20
2022-11-14T23:17:48.395Z,8.10
2022-11-14T23:23:04.892Z,8.10
2022-11-14T23:28:22.888Z,8.10
2022-11-14T23:33:39.852Z,8.10
2022-11-14T23:38:56.778Z,8.10
2022-11-14T23:44:14.492Z,8.00
2022-11-14T23:49:31.231Z,8.00
2022-11-14T23:54:47.694Z,7.90
